Ana Sayfa
METAR-TAF:

METAR-TAF

Havaalanları :

Mildura, Avustralya

Enlem: 34-13-45S, Boylam: 142-05-08E, yükseklik: 51 m

Güncel hava durumu gözlemi

Rapor saat 08:00 UTC de 36 dakika önce yapıldı.
Rüzgar güneybatıdan 4 kt
Sıcaklık 10°C
Nem 62%
Basınç 1023 hPa
Görüş mesafesi 10 km veya daha fazla

METAR: YMIA 180800Z AUTO 23004KT 9999 // NCD 10/03 Q1023

Saat: 18:36 (08:36 UTC)


TAF: eksik

4.000'den fazla havaalanı için hava durumu gözlemleri ve tahminleri (METAR ve TAF raporları).

Kullanılabilir istasyonlar harita üzerinde sarı ve kırmızı noktalarla gösterilir.

İstasyonun adını görmek için fareyi noktanın üzerinde gezdirin.

Sonrasında hava gözlem ve tahminlerini görmek için tıklayın.

Haritayı değiştirmek için: yaklaştırmak için siyah artı işaretli yeşil düğmeye ve uzaklaştırmak için de eksi işaretli düğmeye hızla tıklayın; bitişik haritalar için yeşil okları kullanın.


METAR-TAF: